Pickering, Missouri
Current Conditions -  °F | °C
As of 1:35 PM on Friday 31 Oct 2014 (Local Time) from KICL Reporting Station
Clear Clear  
Wind Chill: 36°   Ceiling: Unl
Heat Index: 43°   Visibility: 8mi
Dew Point: 16°   Wind: 14mph
Humidity: 34%   Direction: 360°N
Pressure: 30.53"   Gusts: 20mph
Location:  40.45°N, 94.84°W
Report Text: KICL 311835Z AUTO 36012G17KT 8SM CLR 06/M09 A3053 RMK AO2
Loading
Personal Weather Stations






























Interactive Weather Map
Tropical Storm Tracking
New forecast layout! Learn more

10-Day Weather Forecast

Advertisements
Track Severe Weather on mobile